sensor_id;sensor_type;location;lat;lon;timestamp;temperature;humidity
80228;DHT22;69539;42.138;24.742;2024-03-17T00:02:13;14.30;38.40
80228;DHT22;69539;42.138;24.742;2024-03-17T00:04:39;14.30;38.60
80228;DHT22;69539;42.138;24.742;2024-03-17T00:07:04;14.30;38.80
80228;DHT22;69539;42.138;24.742;2024-03-17T00:09:30;14.30;38.80
80228;DHT22;69539;42.138;24.742;2024-03-17T00:11:55;14.30;38.90
80228;DHT22;69539;42.138;24.742;2024-03-17T00:14:22;14.20;38.90
80228;DHT22;69539;42.138;24.742;2024-03-17T00:16:47;14.20;39.00
80228;DHT22;69539;42.138;24.742;2024-03-17T00:19:14;14.20;39.10
80228;DHT22;69539;42.138;24.742;2024-03-17T00:21:40;14.20;39.00
80228;DHT22;69539;42.138;24.742;2024-03-17T00:24:06;14.20;38.90
80228;DHT22;69539;42.138;24.742;2024-03-17T00:26:32;14.20;38.90
80228;DHT22;69539;42.138;24.742;2024-03-17T00:28:59;14.10;38.90
80228;DHT22;69539;42.138;24.742;2024-03-17T00:31:25;14.10;39.10
80228;DHT22;69539;42.138;24.742;2024-03-17T00:33:53;14.10;39.20
80228;DHT22;69539;42.138;24.742;2024-03-17T00:36:19;14.00;39.30
80228;DHT22;69539;42.138;24.742;2024-03-17T00:38:45;14.00;39.30
80228;DHT22;69539;42.138;24.742;2024-03-17T00:41:11;14.00;39.40
80228;DHT22;69539;42.138;24.742;2024-03-17T00:43:37;14.00;39.60
80228;DHT22;69539;42.138;24.742;2024-03-17T00:46:03;14.00;39.60
80228;DHT22;69539;42.138;24.742;2024-03-17T00:48:29;14.00;39.60
80228;DHT22;69539;42.138;24.742;2024-03-17T00:50:57;13.90;39.70
80228;DHT22;69539;42.138;24.742;2024-03-17T00:53:24;13.90;39.90
80228;DHT22;69539;42.138;24.742;2024-03-17T00:55:56;13.90;39.80
80228;DHT22;69539;42.138;24.742;2024-03-17T00:58:26;13.90;39.70
80228;DHT22;69539;42.138;24.742;2024-03-17T01:00:52;13.90;39.70
80228;DHT22;69539;42.138;24.742;2024-03-17T01:03:18;13.80;39.80
80228;DHT22;69539;42.138;24.742;2024-03-17T01:05:44;13.80;39.90
80228;DHT22;69539;42.138;24.742;2024-03-17T01:08:13;13.70;39.90
80228;DHT22;69539;42.138;24.742;2024-03-17T01:10:43;13.70;40.00
80228;DHT22;69539;42.138;24.742;2024-03-17T01:13:09;13.70;40.00
80228;DHT22;69539;42.138;24.742;2024-03-17T01:15:37;13.70;40.00
80228;DHT22;69539;42.138;24.742;2024-03-17T01:18:06;13.60;40.10
80228;DHT22;69539;42.138;24.742;2024-03-17T01:20:32;13.60;40.20
80228;DHT22;69539;42.138;24.742;2024-03-17T01:22:58;13.60;40.20
80228;DHT22;69539;42.138;24.742;2024-03-17T01:25:24;13.60;40.30
80228;DHT22;69539;42.138;24.742;2024-03-17T01:27:53;13.60;40.40
80228;DHT22;69539;42.138;24.742;2024-03-17T01:30:19;13.60;40.40
80228;DHT22;69539;42.138;24.742;2024-03-17T01:32:45;13.50;40.40
80228;DHT22;69539;42.138;24.742;2024-03-17T01:35:11;13.50;40.60
80228;DHT22;69539;42.138;24.742;2024-03-17T01:37:37;13.40;40.70
80228;DHT22;69539;42.138;24.742;2024-03-17T01:40:04;13.40;40.80
80228;DHT22;69539;42.138;24.742;2024-03-17T01:42:36;13.40;40.90
80228;DHT22;69539;42.138;24.742;2024-03-17T01:47:44;13.40;41.00
80228;DHT22;69539;42.138;24.742;2024-03-17T01:50:10;13.30;41.00
80228;DHT22;69539;42.138;24.742;2024-03-17T01:52:38;13.40;41.20
80228;DHT22;69539;42.138;24.742;2024-03-17T01:55:04;13.40;41.30
80228;DHT22;69539;42.138;24.742;2024-03-17T01:57:31;13.40;41.20
80228;DHT22;69539;42.138;24.742;2024-03-17T01:59:57;13.40;41.30
80228;DHT22;69539;42.138;24.742;2024-03-17T02:02:23;13.40;41.40
80228;DHT22;69539;42.138;24.742;2024-03-17T02:04:49;13.40;41.50
80228;DHT22;69539;42.138;24.742;2024-03-17T02:07:15;13.40;41.50
80228;DHT22;69539;42.138;24.742;2024-03-17T02:09:41;13.30;41.50
80228;DHT22;69539;42.138;24.742;2024-03-17T02:12:09;13.30;41.60
80228;DHT22;69539;42.138;24.742;2024-03-17T02:14:35;13.30;41.80
80228;DHT22;69539;42.138;24.742;2024-03-17T02:17:01;13.30;41.80
80228;DHT22;69539;42.138;24.742;2024-03-17T02:19:26;13.30;41.80
80228;DHT22;69539;42.138;24.742;2024-03-17T02:21:52;13.30;42.10
80228;DHT22;69539;42.138;24.742;2024-03-17T02:24:17;13.30;42.20
80228;DHT22;69539;42.138;24.742;2024-03-17T02:26:43;13.30;42.40
80228;DHT22;69539;42.138;24.742;2024-03-17T02:29:09;13.30;42.60
80228;DHT22;69539;42.138;24.742;2024-03-17T02:31:35;13.30;42.80
80228;DHT22;69539;42.138;24.742;2024-03-17T02:34:01;13.30;43.00
80228;DHT22;69539;42.138;24.742;2024-03-17T02:36:27;13.30;43.10
80228;DHT22;69539;42.138;24.742;2024-03-17T02:38:53;13.30;43.20
80228;DHT22;69539;42.138;24.742;2024-03-17T02:41:37;13.30;43.30
80228;DHT22;69539;42.138;24.742;2024-03-17T02:44:02;13.20;43.40
80228;DHT22;69539;42.138;24.742;2024-03-17T02:46:28;13.20;43.40
80228;DHT22;69539;42.138;24.742;2024-03-17T02:48:54;13.30;43.60
80228;DHT22;69539;42.138;24.742;2024-03-17T02:51:21;13.20;43.50
80228;DHT22;69539;42.138;24.742;2024-03-17T02:53:48;13.20;43.60
80228;DHT22;69539;42.138;24.742;2024-03-17T02:56:15;13.20;43.80
80228;DHT22;69539;42.138;24.742;2024-03-17T02:58:44;13.20;44.00
80228;DHT22;69539;42.138;24.742;2024-03-17T03:01:12;13.20;44.00
80228;DHT22;69539;42.138;24.742;2024-03-17T03:03:37;13.10;43.90
80228;DHT22;69539;42.138;24.742;2024-03-17T03:06:04;13.10;44.00
80228;DHT22;69539;42.138;24.742;2024-03-17T03:08:35;13.10;44.00
80228;DHT22;69539;42.138;24.742;2024-03-17T03:11:02;13.10;44.00
80228;DHT22;69539;42.138;24.742;2024-03-17T03:13:27;13.10;44.10
80228;DHT22;69539;42.138;24.742;2024-03-17T03:15:53;13.10;44.30
80228;DHT22;69539;42.138;24.742;2024-03-17T03:18:19;13.10;44.40
80228;DHT22;69539;42.138;24.742;2024-03-17T03:20:51;13.10;44.60
80228;DHT22;69539;42.138;24.742;2024-03-17T03:23:17;13.10;44.80
80228;DHT22;69539;42.138;24.742;2024-03-17T03:25:43;13.10;44.90
80228;DHT22;69539;42.138;24.742;2024-03-17T03:28:08;13.10;44.90
80228;DHT22;69539;42.138;24.742;2024-03-17T03:30:38;13.10;45.00
80228;DHT22;69539;42.138;24.742;2024-03-17T03:33:04;13.00;45.10
80228;DHT22;69539;42.138;24.742;2024-03-17T03:35:31;13.00;45.00
80228;DHT22;69539;42.138;24.742;2024-03-17T03:37:56;13.00;45.10
80228;DHT22;69539;42.138;24.742;2024-03-17T03:40:22;12.90;45.00
80228;DHT22;69539;42.138;24.742;2024-03-17T03:42:48;12.90;45.20
80228;DHT22;69539;42.138;24.742;2024-03-17T03:45:14;12.90;45.30
80228;DHT22;69539;42.138;24.742;2024-03-17T03:47:40;12.90;45.40
80228;DHT22;69539;42.138;24.742;2024-03-17T03:50:10;12.90;45.50
80228;DHT22;69539;42.138;24.742;2024-03-17T03:52:37;12.90;45.50
80228;DHT22;69539;42.138;24.742;2024-03-17T03:55:03;12.90;45.60
80228;DHT22;69539;42.138;24.742;2024-03-17T03:57:30;12.90;45.70
80228;DHT22;69539;42.138;24.742;2024-03-17T03:59:57;12.90;45.70
80228;DHT22;69539;42.138;24.742;2024-03-17T04:02:23;12.90;45.90
80228;DHT22;69539;42.138;24.742;2024-03-17T04:04:50;12.90;45.90
80228;DHT22;69539;42.138;24.742;2024-03-17T04:07:16;12.90;45.90
80228;DHT22;69539;42.138;24.742;2024-03-17T04:09:42;12.90;46.00
80228;DHT22;69539;42.138;24.742;2024-03-17T04:12:07;12.80;46.00
80228;DHT22;69539;42.138;24.742;2024-03-17T04:14:33;12.80;46.10
80228;DHT22;69539;42.138;24.742;2024-03-17T04:16:59;12.80;46.10
80228;DHT22;69539;42.138;24.742;2024-03-17T04:19:24;12.80;46.20
80228;DHT22;69539;42.138;24.742;2024-03-17T04:21:52;12.90;46.30
80228;DHT22;69539;42.138;24.742;2024-03-17T04:24:17;12.80;46.30
80228;DHT22;69539;42.138;24.742;2024-03-17T04:26:43;12.80;46.30
80228;DHT22;69539;42.138;24.742;2024-03-17T04:29:09;12.80;46.30
80228;DHT22;69539;42.138;24.742;2024-03-17T04:31:34;12.80;46.30
80228;DHT22;69539;42.138;24.742;2024-03-17T04:34:00;12.80;46.40
80228;DHT22;69539;42.138;24.742;2024-03-17T04:36:26;12.80;46.40
80228;DHT22;69539;42.138;24.742;2024-03-17T04:38:52;12.80;46.50
80228;DHT22;69539;42.138;24.742;2024-03-17T04:41:19;12.80;46.40
80228;DHT22;69539;42.138;24.742;2024-03-17T04:43:45;12.80;46.50
80228;DHT22;69539;42.138;24.742;2024-03-17T04:46:11;12.80;46.50
80228;DHT22;69539;42.138;24.742;2024-03-17T04:48:39;12.80;46.50
80228;DHT22;69539;42.138;24.742;2024-03-17T04:51:05;12.80;46.50
80228;DHT22;69539;42.138;24.742;2024-03-17T04:53:30;12.80;46.70
80228;DHT22;69539;42.138;24.742;2024-03-17T04:56:04;12.90;46.60
80228;DHT22;69539;42.138;24.742;2024-03-17T04:58:34;12.90;46.60
80228;DHT22;69539;42.138;24.742;2024-03-17T05:01:04;12.90;46.30
80228;DHT22;69539;42.138;24.742;2024-03-17T05:03:30;12.90;46.20
80228;DHT22;69539;42.138;24.742;2024-03-17T05:06:02;13.00;46.20
80228;DHT22;69539;42.138;24.742;2024-03-17T05:08:29;13.00;46.40
80228;DHT22;69539;42.138;24.742;2024-03-17T05:11:02;13.10;46.60
80228;DHT22;69539;42.138;24.742;2024-03-17T05:13:32;13.10;46.40
80228;DHT22;69539;42.138;24.742;2024-03-17T05:15:59;13.10;46.00
80228;DHT22;69539;42.138;24.742;2024-03-17T05:18:25;13.20;45.70
80228;DHT22;69539;42.138;24.742;2024-03-17T05:21:02;13.30;45.50
80228;DHT22;69539;42.138;24.742;2024-03-17T05:23:29;13.30;45.20
80228;DHT22;69539;42.138;24.742;2024-03-17T05:25:56;13.40;44.80
80228;DHT22;69539;42.138;24.742;2024-03-17T05:28:23;13.50;44.60
80228;DHT22;69539;42.138;24.742;2024-03-17T05:30:49;13.50;44.30
80228;DHT22;69539;42.138;24.742;2024-03-17T05:33:16;13.60;44.00
80228;DHT22;69539;42.138;24.742;2024-03-17T05:35:54;13.60;43.80
80228;DHT22;69539;42.138;24.742;2024-03-17T05:38:20;13.70;43.70
80228;DHT22;69539;42.138;24.742;2024-03-17T05:41:07;13.80;43.50
80228;DHT22;69539;42.138;24.742;2024-03-17T05:43:34;14.00;43.30
80228;DHT22;69539;42.138;24.742;2024-03-17T05:46:05;14.10;43.10
80228;DHT22;69539;42.138;24.742;2024-03-17T05:48:38;14.30;42.80
80228;DHT22;69539;42.138;24.742;2024-03-17T05:51:05;14.40;42.40
80228;DHT22;69539;42.138;24.742;2024-03-17T05:53:31;14.50;42.00
80228;DHT22;69539;42.138;24.742;2024-03-17T05:56:00;14.60;41.60
80228;DHT22;69539;42.138;24.742;2024-03-17T05:58:26;14.60;41.30
80228;DHT22;69539;42.138;24.742;2024-03-17T06:00:52;14.70;42.10
80228;DHT22;69539;42.138;24.742;2024-03-17T06:03:18;14.80;40.80
80228;DHT22;69539;42.138;24.742;2024-03-17T06:05:44;14.90;40.60
80228;DHT22;69539;42.138;24.742;2024-03-17T06:08:11;15.00;40.20
80228;DHT22;69539;42.138;24.742;2024-03-17T06:10:38;15.20;39.80
80228;DHT22;69539;42.138;24.742;2024-03-17T06:13:08;15.40;39.10
80228;DHT22;69539;42.138;24.742;2024-03-17T06:15:37;15.50;38.20
80228;DHT22;69539;42.138;24.742;2024-03-17T06:18:03;15.60;37.90
80228;DHT22;69539;42.138;24.742;2024-03-17T06:20:30;15.60;37.70
80228;DHT22;69539;42.138;24.742;2024-03-17T06:22:56;15.70;37.40
80228;DHT22;69539;42.138;24.742;2024-03-17T06:25:22;15.80;38.40
80228;DHT22;69539;42.138;24.742;2024-03-17T06:27:51;16.00;37.10
80228;DHT22;69539;42.138;24.742;2024-03-17T06:30:17;16.50;36.70
80228;DHT22;69539;42.138;24.742;2024-03-17T06:32:45;17.10;35.80
80228;DHT22;69539;42.138;24.742;2024-03-17T06:35:15;17.60;34.50
80228;DHT22;69539;42.138;24.742;2024-03-17T06:37:51;18.20;33.10
80228;DHT22;69539;42.138;24.742;2024-03-17T06:40:18;18.80;32.00
80228;DHT22;69539;42.138;24.742;2024-03-17T06:42:44;19.00;31.60
80228;DHT22;69539;42.138;24.742;2024-03-17T06:45:10;19.00;31.80
80228;DHT22;69539;42.138;24.742;2024-03-17T06:47:38;18.90;31.60
80228;DHT22;69539;42.138;24.742;2024-03-17T06:50:06;18.90;31.30
80228;DHT22;69539;42.138;24.742;2024-03-17T06:52:35;18.90;31.20
80228;DHT22;69539;42.138;24.742;2024-03-17T06:55:01;19.00;30.80
80228;DHT22;69539;42.138;24.742;2024-03-17T06:57:27;19.10;30.60
80228;DHT22;69539;42.138;24.742;2024-03-17T06:59:52;19.20;30.40
80228;DHT22;69539;42.138;24.742;2024-03-17T07:02:18;19.60;29.90
80228;DHT22;69539;42.138;24.742;2024-03-17T07:05:07;20.10;29.30
80228;DHT22;69539;42.138;24.742;2024-03-17T07:07:33;20.50;28.70
80228;DHT22;69539;42.138;24.742;2024-03-17T07:09:58;20.70;28.20
80228;DHT22;69539;42.138;24.742;2024-03-17T07:12:24;21.20;27.70
80228;DHT22;69539;42.138;24.742;2024-03-17T07:14:50;21.70;27.00
80228;DHT22;69539;42.138;24.742;2024-03-17T07:17:16;22.00;26.50
80228;DHT22;69539;42.138;24.742;2024-03-17T07:19:42;22.20;26.40
80228;DHT22;69539;42.138;24.742;2024-03-17T07:22:08;22.30;26.20
80228;DHT22;69539;42.138;24.742;2024-03-17T07:24:33;22.40;25.80
80228;DHT22;69539;42.138;24.742;2024-03-17T07:26:59;22.50;25.60
80228;DHT22;69539;42.138;24.742;2024-03-17T07:29:24;23.00;25.30
80228;DHT22;69539;42.138;24.742;2024-03-17T07:31:51;23.70;24.60
80228;DHT22;69539;42.138;24.742;2024-03-17T07:34:16;24.60;23.90
80228;DHT22;69539;42.138;24.742;2024-03-17T07:36:42;25.20;23.00
80228;DHT22;69539;42.138;24.742;2024-03-17T07:39:08;25.50;22.50
80228;DHT22;69539;42.138;24.742;2024-03-17T07:41:34;25.30;22.40
80228;DHT22;69539;42.138;24.742;2024-03-17T07:44:00;25.00;22.60
80228;DHT22;69539;42.138;24.742;2024-03-17T07:46:25;24.80;22.80
80228;DHT22;69539;42.138;24.742;2024-03-17T07:48:51;24.40;22.90
80228;DHT22;69539;42.138;24.742;2024-03-17T07:51:17;24.10;23.10
80228;DHT22;69539;42.138;24.742;2024-03-17T07:53:44;23.80;23.40
80228;DHT22;69539;42.138;24.742;2024-03-17T07:56:11;23.60;23.40
80228;DHT22;69539;42.138;24.742;2024-03-17T07:58:39;23.40;23.50
80228;DHT22;69539;42.138;24.742;2024-03-17T08:01:06;23.20;23.70
80228;DHT22;69539;42.138;24.742;2024-03-17T08:03:33;22.90;24.00
80228;DHT22;69539;42.138;24.742;2024-03-17T08:06:01;22.70;24.40
80228;DHT22;69539;42.138;24.742;2024-03-17T08:08:27;22.50;24.80
80228;DHT22;69539;42.138;24.742;2024-03-17T08:10:53;22.30;25.00
80228;DHT22;69539;42.138;24.742;2024-03-17T08:13:18;22.00;26.00
80228;DHT22;69539;42.138;24.742;2024-03-17T08:15:45;21.90;25.40
80228;DHT22;69539;42.138;24.742;2024-03-17T08:18:12;21.70;25.70
80228;DHT22;69539;42.138;24.742;2024-03-17T08:20:38;21.50;25.90
80228;DHT22;69539;42.138;24.742;2024-03-17T08:23:08;21.40;26.10
80228;DHT22;69539;42.138;24.742;2024-03-17T08:25:34;20.70;27.70
80228;DHT22;69539;42.138;24.742;2024-03-17T08:28:01;20.50;27.90
80228;DHT22;69539;42.138;24.742;2024-03-17T08:30:27;20.50;28.10
80228;DHT22;69539;42.138;24.742;2024-03-17T08:32:52;20.40;28.10
80228;DHT22;69539;42.138;24.742;2024-03-17T08:35:18;20.50;28.20
80228;DHT22;69539;42.138;24.742;2024-03-17T08:37:43;20.60;28.30
80228;DHT22;69539;42.138;24.742;2024-03-17T08:40:11;20.80;28.10
80228;DHT22;69539;42.138;24.742;2024-03-17T08:42:37;21.00;27.90
80228;DHT22;69539;42.138;24.742;2024-03-17T08:45:03;21.20;27.60
80228;DHT22;69539;42.138;24.742;2024-03-17T08:47:29;21.60;28.00
80228;DHT22;69539;42.138;24.742;2024-03-17T08:49:55;22.10;26.60
80228;DHT22;69539;42.138;24.742;2024-03-17T08:52:20;22.40;26.30
80228;DHT22;69539;42.138;24.742;2024-03-17T08:54:47;23.10;25.70
80228;DHT22;69539;42.138;24.742;2024-03-17T08:57:13;23.80;25.10
80228;DHT22;69539;42.138;24.742;2024-03-17T08:59:39;24.20;24.40
80228;DHT22;69539;42.138;24.742;2024-03-17T09:02:05;24.60;23.90
80228;DHT22;69539;42.138;24.742;2024-03-17T09:04:31;24.90;23.60
80228;DHT22;69539;42.138;24.742;2024-03-17T09:06:57;25.40;23.30
80228;DHT22;69539;42.138;24.742;2024-03-17T09:09:23;25.80;22.70
80228;DHT22;69539;42.138;24.742;2024-03-17T09:11:48;26.30;22.20
80228;DHT22;69539;42.138;24.742;2024-03-17T09:14:14;26.50;22.90
80228;DHT22;69539;42.138;24.742;2024-03-17T09:16:40;26.60;23.00
80228;DHT22;69539;42.138;24.742;2024-03-17T09:19:05;26.60;24.00
80228;DHT22;69539;42.138;24.742;2024-03-17T09:21:31;26.60;23.70
80228;DHT22;69539;42.138;24.742;2024-03-17T09:23:57;26.50;23.20
80228;DHT22;69539;42.138;24.742;2024-03-17T09:26:22;26.30;22.50
80228;DHT22;69539;42.138;24.742;2024-03-17T09:28:48;26.20;22.80
80228;DHT22;69539;42.138;24.742;2024-03-17T09:31:13;26.20;24.10
80228;DHT22;69539;42.138;24.742;2024-03-17T09:33:39;26.30;23.30
80228;DHT22;69539;42.138;24.742;2024-03-17T09:36:06;26.20;22.70
80228;DHT22;69539;42.138;24.742;2024-03-17T09:38:36;26.10;22.30
80228;DHT22;69539;42.138;24.742;2024-03-17T09:41:02;26.10;22.20
80228;DHT22;69539;42.138;24.742;2024-03-17T09:43:29;26.30;23.50
80228;DHT22;69539;42.138;24.742;2024-03-17T09:45:55;26.40;23.30
80228;DHT22;69539;42.138;24.742;2024-03-17T09:48:25;26.50;23.00
80228;DHT22;69539;42.138;24.742;2024-03-17T09:50:52;26.70;22.30
80228;DHT22;69539;42.138;24.742;2024-03-17T09:53:29;27.00;21.80
80228;DHT22;69539;42.138;24.742;2024-03-17T09:56:00;27.20;21.40
80228;DHT22;69539;42.138;24.742;2024-03-17T09:58:26;27.40;21.10
80228;DHT22;69539;42.138;24.742;2024-03-17T10:00:52;27.60;24.90
80228;DHT22;69539;42.138;24.742;2024-03-17T10:06:09;28.10;22.40
80228;DHT22;69539;42.138;24.742;2024-03-17T10:08:48;28.10;21.80
80228;DHT22;69539;42.138;24.742;2024-03-17T10:11:15;28.30;21.90
80228;DHT22;69539;42.138;24.742;2024-03-17T10:13:42;28.30;21.20
80228;DHT22;69539;42.138;24.742;2024-03-17T10:16:23;28.30;21.40
80228;DHT22;69539;42.138;24.742;2024-03-17T10:18:50;28.40;21.60
80228;DHT22;69539;42.138;24.742;2024-03-17T10:21:27;28.30;21.00
80228;DHT22;69539;42.138;24.742;2024-03-17T10:24:12;28.30;20.60
80228;DHT22;69539;42.138;24.742;2024-03-17T10:26:51;28.20;20.40
80228;DHT22;69539;42.138;24.742;2024-03-17T10:32:20;28.00;20.80
80228;DHT22;69539;42.138;24.742;2024-03-17T10:34:49;27.90;20.40
80228;DHT22;69539;42.138;24.742;2024-03-17T10:37:20;27.80;20.80
80228;DHT22;69539;42.138;24.742;2024-03-17T10:39:51;27.60;20.70
80228;DHT22;69539;42.138;24.742;2024-03-17T10:42:27;27.50;20.50
80228;DHT22;69539;42.138;24.742;2024-03-17T10:45:01;27.30;20.50
80228;DHT22;69539;42.138;24.742;2024-03-17T10:47:33;27.20;21.10
80228;DHT22;69539;42.138;24.742;2024-03-17T10:50:00;27.10;21.70
80228;DHT22;69539;42.138;24.742;2024-03-17T10:52:49;27.00;21.20
80228;DHT22;69539;42.138;24.742;2024-03-17T10:55:23;26.90;21.10
80228;DHT22;69539;42.138;24.742;2024-03-17T11:00:18;26.70;21.40
80228;DHT22;69539;42.138;24.742;2024-03-17T11:02:45;26.70;21.40
80228;DHT22;69539;42.138;24.742;2024-03-17T11:05:13;26.70;21.40
80228;DHT22;69539;42.138;24.742;2024-03-17T11:07:40;26.60;21.50
80228;DHT22;69539;42.138;24.742;2024-03-17T11:12:48;26.50;22.20
80228;DHT22;69539;42.138;24.742;2024-03-17T11:22:52;26.10;21.90
80228;DHT22;69539;42.138;24.742;2024-03-17T11:27:53;25.90;21.90
80228;DHT22;69539;42.138;24.742;2024-03-17T11:39:04;25.70;22.20
80228;DHT22;69539;42.138;24.742;2024-03-17T11:41:49;25.60;22.50
80228;DHT22;69539;42.138;24.742;2024-03-17T11:47:18;25.50;22.70
80228;DHT22;69539;42.138;24.742;2024-03-17T11:49:44;25.40;22.40
80228;DHT22;69539;42.138;24.742;2024-03-17T11:52:14;25.40;22.40
80228;DHT22;69539;42.138;24.742;2024-03-17T11:54:42;25.30;22.30
80228;DHT22;69539;42.138;24.742;2024-03-17T11:59:38;25.20;22.00
80228;DHT22;69539;42.138;24.742;2024-03-17T12:02:31;25.10;22.00
80228;DHT22;69539;42.138;24.742;2024-03-17T12:05:04;25.10;22.10
80228;DHT22;69539;42.138;24.742;2024-03-17T12:07:31;25.00;21.90
80228;DHT22;69539;42.138;24.742;2024-03-17T12:09:57;24.90;23.50
80228;DHT22;69539;42.138;24.742;2024-03-17T12:12:24;24.90;24.30
80228;DHT22;69539;42.138;24.742;2024-03-17T12:14:56;24.80;24.20
80228;DHT22;69539;42.138;24.742;2024-03-17T12:17:23;24.70;23.20
80228;DHT22;69539;42.138;24.742;2024-03-17T12:19:49;24.60;22.70
80228;DHT22;69539;42.138;24.742;2024-03-17T12:22:17;24.50;22.50
80228;DHT22;69539;42.138;24.742;2024-03-17T12:24:50;24.50;23.70
80228;DHT22;69539;42.138;24.742;2024-03-17T12:27:18;24.50;24.00
80228;DHT22;69539;42.138;24.742;2024-03-17T12:29:44;24.40;23.40
80228;DHT22;69539;42.138;24.742;2024-03-17T12:34:36;24.40;22.50
80228;DHT22;69539;42.138;24.742;2024-03-17T12:37:03;24.30;22.30
80228;DHT22;69539;42.138;24.742;2024-03-17T12:39:33;24.30;22.10
80228;DHT22;69539;42.138;24.742;2024-03-17T12:42:07;24.20;21.40
80228;DHT22;69539;42.138;24.742;2024-03-17T12:44:47;24.20;21.20
80228;DHT22;69539;42.138;24.742;2024-03-17T12:47:20;24.10;21.00
80228;DHT22;69539;42.138;24.742;2024-03-17T12:52:24;24.00;21.10
80228;DHT22;69539;42.138;24.742;2024-03-17T12:57:46;23.90;20.70
80228;DHT22;69539;42.138;24.742;2024-03-17T13:00:30;23.80;19.50
80228;DHT22;69539;42.138;24.742;2024-03-17T13:03:04;23.70;19.40
80228;DHT22;69539;42.138;24.742;2024-03-17T13:05:31;23.60;19.20
80228;DHT22;69539;42.138;24.742;2024-03-17T13:07:58;23.60;19.10
80228;DHT22;69539;42.138;24.742;2024-03-17T13:10:25;23.50;19.20
80228;DHT22;69539;42.138;24.742;2024-03-17T13:13:01;23.50;19.70
80228;DHT22;69539;42.138;24.742;2024-03-17T13:15:28;23.50;20.00
80228;DHT22;69539;42.138;24.742;2024-03-17T13:17:57;23.50;20.10
80228;DHT22;69539;42.138;24.742;2024-03-17T13:20:22;23.40;20.20
80228;DHT22;69539;42.138;24.742;2024-03-17T13:22:48;23.40;20.60
80228;DHT22;69539;42.138;24.742;2024-03-17T13:25:16;23.40;21.00
80228;DHT22;69539;42.138;24.742;2024-03-17T13:27:42;23.40;20.80
80228;DHT22;69539;42.138;24.742;2024-03-17T13:30:08;23.40;20.50
80228;DHT22;69539;42.138;24.742;2024-03-17T13:32:35;23.50;20.70
80228;DHT22;69539;42.138;24.742;2024-03-17T13:35:01;23.50;20.90
80228;DHT22;69539;42.138;24.742;2024-03-17T13:37:28;23.50;20.60
80228;DHT22;69539;42.138;24.742;2024-03-17T13:39:53;23.50;20.60
80228;DHT22;69539;42.138;24.742;2024-03-17T13:42:19;23.50;20.20
80228;DHT22;69539;42.138;24.742;2024-03-17T13:44:45;23.40;20.30
80228;DHT22;69539;42.138;24.742;2024-03-17T13:47:12;23.40;20.20
80228;DHT22;69539;42.138;24.742;2024-03-17T13:49:39;23.40;19.80
80228;DHT22;69539;42.138;24.742;2024-03-17T13:52:05;23.30;19.70
80228;DHT22;69539;42.138;24.742;2024-03-17T13:54:30;23.30;19.80
80228;DHT22;69539;42.138;24.742;2024-03-17T13:56:57;23.30;20.00
80228;DHT22;69539;42.138;24.742;2024-03-17T13:59:23;23.20;20.10
80228;DHT22;69539;42.138;24.742;2024-03-17T14:01:50;23.20;20.10
80228;DHT22;69539;42.138;24.742;2024-03-17T14:04:16;23.20;20.30
80228;DHT22;69539;42.138;24.742;2024-03-17T14:06:44;23.20;20.40
80228;DHT22;69539;42.138;24.742;2024-03-17T14:09:19;23.10;20.20
80228;DHT22;69539;42.138;24.742;2024-03-17T14:11:45;23.10;20.30
80228;DHT22;69539;42.138;24.742;2024-03-17T14:14:12;23.10;20.20
80228;DHT22;69539;42.138;24.742;2024-03-17T14:16:37;22.90;20.00
80228;DHT22;69539;42.138;24.742;2024-03-17T14:19:03;22.90;19.70
80228;DHT22;69539;42.138;24.742;2024-03-17T14:21:29;22.80;19.70
80228;DHT22;69539;42.138;24.742;2024-03-17T14:23:55;22.80;19.60
80228;DHT22;69539;42.138;24.742;2024-03-17T14:26:21;22.70;19.50
80228;DHT22;69539;42.138;24.742;2024-03-17T14:28:48;22.50;19.50
80228;DHT22;69539;42.138;24.742;2024-03-17T14:31:16;22.50;19.80
80228;DHT22;69539;42.138;24.742;2024-03-17T14:33:43;22.40;19.80
80228;DHT22;69539;42.138;24.742;2024-03-17T14:36:09;22.40;20.00
80228;DHT22;69539;42.138;24.742;2024-03-17T14:38:35;22.30;20.30
80228;DHT22;69539;42.138;24.742;2024-03-17T14:41:00;22.20;20.40
80228;DHT22;69539;42.138;24.742;2024-03-17T14:43:27;22.20;20.30
80228;DHT22;69539;42.138;24.742;2024-03-17T14:45:52;22.10;20.20
80228;DHT22;69539;42.138;24.742;2024-03-17T14:48:18;22.00;20.60
80228;DHT22;69539;42.138;24.742;2024-03-17T14:50:44;22.00;20.70
80228;DHT22;69539;42.138;24.742;2024-03-17T14:53:10;22.00;20.70
80228;DHT22;69539;42.138;24.742;2024-03-17T14:55:35;22.00;21.00
80228;DHT22;69539;42.138;24.742;2024-03-17T14:58:01;21.90;21.50
80228;DHT22;69539;42.138;24.742;2024-03-17T15:00:28;21.90;21.70
80228;DHT22;69539;42.138;24.742;2024-03-17T15:02:56;21.90;21.20
80228;DHT22;69539;42.138;24.742;2024-03-17T15:05:22;21.80;21.00
80228;DHT22;69539;42.138;24.742;2024-03-17T15:07:49;21.90;21.10
80228;DHT22;69539;42.138;24.742;2024-03-17T15:10:15;21.80;21.40
80228;DHT22;69539;42.138;24.742;2024-03-17T15:12:43;21.80;21.40
80228;DHT22;69539;42.138;24.742;2024-03-17T15:15:10;21.70;21.40
80228;DHT22;69539;42.138;24.742;2024-03-17T15:17:36;21.70;21.30
80228;DHT22;69539;42.138;24.742;2024-03-17T15:20:02;21.60;21.20
80228;DHT22;69539;42.138;24.742;2024-03-17T15:22:33;21.60;21.50
80228;DHT22;69539;42.138;24.742;2024-03-17T15:24:59;21.50;22.30
80228;DHT22;69539;42.138;24.742;2024-03-17T15:27:25;21.50;21.70
80228;DHT22;69539;42.138;24.742;2024-03-17T15:29:50;21.50;21.80
80228;DHT22;69539;42.138;24.742;2024-03-17T15:32:17;21.40;22.00
80228;DHT22;69539;42.138;24.742;2024-03-17T15:34:43;21.40;21.90
80228;DHT22;69539;42.138;24.742;2024-03-17T15:37:09;21.30;21.90
80228;DHT22;69539;42.138;24.742;2024-03-17T15:39:34;21.30;22.20
80228;DHT22;69539;42.138;24.742;2024-03-17T15:42:00;21.20;22.20
80228;DHT22;69539;42.138;24.742;2024-03-17T15:44:27;21.20;21.90
80228;DHT22;69539;42.138;24.742;2024-03-17T15:46:53;21.10;22.00
80228;DHT22;69539;42.138;24.742;2024-03-17T15:49:18;21.10;22.20
80228;DHT22;69539;42.138;24.742;2024-03-17T15:51:44;21.10;22.40
80228;DHT22;69539;42.138;24.742;2024-03-17T15:54:09;21.00;22.40
80228;DHT22;69539;42.138;24.742;2024-03-17T15:56:35;20.90;22.50
80228;DHT22;69539;42.138;24.742;2024-03-17T15:59:01;20.90;22.60
80228;DHT22;69539;42.138;24.742;2024-03-17T16:01:27;20.80;22.60
80228;DHT22;69539;42.138;24.742;2024-03-17T16:03:53;20.80;22.40